Tangier, Indiana
Current Conditions -  °F | °C
As of 7:15 PM on Sunday 25 Jan 2015 (Local Time) from KDNV Reporting Station
Overcast Overcast  
Wind Chill: 17°   Ceiling: 1400
Heat Index: 29°   Visibility: 10mi
Dew Point: 26°   Wind: 17mph
Humidity: 86%   Direction: 50°NE
Pressure: 29.8"   Gusts: 30mph
Location:  39.9707°N, 87.3162°W
Report Text: KDNV 260015Z AUTO 05015G26KT 10SM BKN014 OVC019 M02/M04 A2980 RMK AO2 T10161036
Loading
Personal Weather Stations






























Interactive Weather Map New forecast layout! Learn more

10-Day Weather Forecast

Advertisements
Track Severe Weather on mobile